sensor_id;sensor_type;location;lat;lon;timestamp;P1;durP1;ratioP1;P2;durP2;ratioP2
6973;SDS011;3527;52.376;8.990;2023-05-09T00:00:12;7.63;;;6.47;;
6973;SDS011;3527;52.376;8.990;2023-05-09T00:02:39;7.43;;;6.63;;
6973;SDS011;3527;52.376;8.990;2023-05-09T00:05:06;6.93;;;5.87;;
6973;SDS011;3527;52.376;8.990;2023-05-09T00:07:33;7.63;;;6.87;;
6973;SDS011;3527;52.376;8.990;2023-05-09T00:10:00;6.87;;;6.17;;
6973;SDS011;3527;52.376;8.990;2023-05-09T00:12:27;7.03;;;6.30;;
6973;SDS011;3527;52.376;8.990;2023-05-09T00:14:53;9.03;;;6.10;;
6973;SDS011;3527;52.376;8.990;2023-05-09T00:17:22;8.00;;;6.30;;
6973;SDS011;3527;52.376;8.990;2023-05-09T00:19:49;7.70;;;6.10;;
6973;SDS011;3527;52.376;8.990;2023-05-09T00:22:16;7.33;;;5.37;;
6973;SDS011;3527;52.376;8.990;2023-05-09T00:24:43;7.30;;;6.23;;
6973;SDS011;3527;52.376;8.990;2023-05-09T00:27:10;7.57;;;6.20;;
6973;SDS011;3527;52.376;8.990;2023-05-09T00:29:37;10.80;;;6.10;;
6973;SDS011;3527;52.376;8.990;2023-05-09T00:32:03;7.13;;;5.73;;
6973;SDS011;3527;52.376;8.990;2023-05-09T00:34:30;6.20;;;5.53;;
6973;SDS011;3527;52.376;8.990;2023-05-09T00:36:57;8.80;;;6.17;;
6973;SDS011;3527;52.376;8.990;2023-05-09T00:39:23;6.97;;;5.60;;
6973;SDS011;3527;52.376;8.990;2023-05-09T00:41:50;7.23;;;5.70;;
6973;SDS011;3527;52.376;8.990;2023-05-09T00:44:17;6.03;;;5.00;;
6973;SDS011;3527;52.376;8.990;2023-05-09T00:46:43;7.40;;;5.60;;
6973;SDS011;3527;52.376;8.990;2023-05-09T00:49:10;8.30;;;5.40;;
6973;SDS011;3527;52.376;8.990;2023-05-09T00:51:38;7.00;;;5.53;;
6973;SDS011;3527;52.376;8.990;2023-05-09T00:54:05;6.07;;;5.47;;
6973;SDS011;3527;52.376;8.990;2023-05-09T00:56:34;7.83;;;5.67;;
6973;SDS011;3527;52.376;8.990;2023-05-09T00:59:00;5.57;;;4.87;;
6973;SDS011;3527;52.376;8.990;2023-05-09T01:01:27;7.93;;;6.03;;
6973;SDS011;3527;52.376;8.990;2023-05-09T01:03:54;6.37;;;5.20;;
6973;SDS011;3527;52.376;8.990;2023-05-09T01:06:35;7.17;;;5.90;;
6973;SDS011;3527;52.376;8.990;2023-05-09T01:09:25;6.13;;;5.30;;
6973;SDS011;3527;52.376;8.990;2023-05-09T01:12:03;6.30;;;5.10;;
6973;SDS011;3527;52.376;8.990;2023-05-09T01:14:51;8.60;;;5.70;;
6973;SDS011;3527;52.376;8.990;2023-05-09T01:22:32;6.17;;;5.17;;
6973;SDS011;3527;52.376;8.990;2023-05-09T01:25:10;6.27;;;5.20;;
6973;SDS011;3527;52.376;8.990;2023-05-09T01:30:13;7.97;;;4.97;;
6973;SDS011;3527;52.376;8.990;2023-05-09T01:32:42;7.23;;;5.50;;
6973;SDS011;3527;52.376;8.990;2023-05-09T01:35:11;7.33;;;5.50;;
6973;SDS011;3527;52.376;8.990;2023-05-09T01:37:40;7.80;;;4.77;;
6973;SDS011;3527;52.376;8.990;2023-05-09T01:40:16;6.87;;;5.37;;
6973;SDS011;3527;52.376;8.990;2023-05-09T01:42:44;6.20;;;5.10;;
6973;SDS011;3527;52.376;8.990;2023-05-09T01:45:13;6.07;;;4.80;;
6973;SDS011;3527;52.376;8.990;2023-05-09T01:47:41;8.67;;;4.97;;
6973;SDS011;3527;52.376;8.990;2023-05-09T01:50:09;6.57;;;5.30;;
6973;SDS011;3527;52.376;8.990;2023-05-09T01:52:36;6.27;;;5.07;;
6973;SDS011;3527;52.376;8.990;2023-05-09T01:55:04;5.43;;;4.90;;
6973;SDS011;3527;52.376;8.990;2023-05-09T01:57:31;6.07;;;5.20;;
6973;SDS011;3527;52.376;8.990;2023-05-09T01:59:58;6.60;;;5.57;;
6973;SDS011;3527;52.376;8.990;2023-05-09T02:02:26;6.53;;;5.50;;
6973;SDS011;3527;52.376;8.990;2023-05-09T02:04:54;7.97;;;5.83;;
6973;SDS011;3527;52.376;8.990;2023-05-09T02:07:21;5.67;;;4.70;;
6973;SDS011;3527;52.376;8.990;2023-05-09T02:09:49;8.90;;;6.07;;
6973;SDS011;3527;52.376;8.990;2023-05-09T02:12:19;7.57;;;5.33;;
6973;SDS011;3527;52.376;8.990;2023-05-09T02:14:46;6.40;;;5.60;;
6973;SDS011;3527;52.376;8.990;2023-05-09T02:17:12;6.53;;;5.50;;
6973;SDS011;3527;52.376;8.990;2023-05-09T02:19:42;7.07;;;5.53;;
6973;SDS011;3527;52.376;8.990;2023-05-09T02:22:09;6.20;;;4.90;;
6973;SDS011;3527;52.376;8.990;2023-05-09T02:24:36;8.17;;;4.83;;
6973;SDS011;3527;52.376;8.990;2023-05-09T02:27:03;8.30;;;5.67;;
6973;SDS011;3527;52.376;8.990;2023-05-09T02:29:31;7.00;;;5.67;;
6973;SDS011;3527;52.376;8.990;2023-05-09T02:32:09;8.50;;;5.97;;
6973;SDS011;3527;52.376;8.990;2023-05-09T02:34:36;7.80;;;5.60;;
6973;SDS011;3527;52.376;8.990;2023-05-09T02:37:03;6.87;;;5.33;;
6973;SDS011;3527;52.376;8.990;2023-05-09T02:39:30;6.03;;;5.00;;
6973;SDS011;3527;52.376;8.990;2023-05-09T02:42:04;6.50;;;5.57;;
6973;SDS011;3527;52.376;8.990;2023-05-09T02:44:30;6.77;;;4.97;;
6973;SDS011;3527;52.376;8.990;2023-05-09T02:46:57;8.27;;;5.27;;
6973;SDS011;3527;52.376;8.990;2023-05-09T02:49:24;7.63;;;5.60;;
6973;SDS011;3527;52.376;8.990;2023-05-09T02:51:57;9.20;;;5.53;;
6973;SDS011;3527;52.376;8.990;2023-05-09T02:54:24;7.93;;;5.40;;
6973;SDS011;3527;52.376;8.990;2023-05-09T02:56:51;8.07;;;5.50;;
6973;SDS011;3527;52.376;8.990;2023-05-09T02:59:18;5.87;;;5.23;;
6973;SDS011;3527;52.376;8.990;2023-05-09T03:01:45;8.43;;;5.63;;
6973;SDS011;3527;52.376;8.990;2023-05-09T03:04:11;6.17;;;5.30;;
6973;SDS011;3527;52.376;8.990;2023-05-09T03:06:38;6.50;;;5.10;;
6973;SDS011;3527;52.376;8.990;2023-05-09T03:09:05;6.57;;;5.30;;
6973;SDS011;3527;52.376;8.990;2023-05-09T03:11:33;6.87;;;5.10;;
6973;SDS011;3527;52.376;8.990;2023-05-09T03:14:02;9.77;;;5.73;;
6973;SDS011;3527;52.376;8.990;2023-05-09T03:16:28;5.50;;;4.70;;
6973;SDS011;3527;52.376;8.990;2023-05-09T03:18:55;6.77;;;5.33;;
6973;SDS011;3527;52.376;8.990;2023-05-09T03:21:22;7.67;;;5.30;;
6973;SDS011;3527;52.376;8.990;2023-05-09T03:23:48;6.03;;;5.03;;
6973;SDS011;3527;52.376;8.990;2023-05-09T03:26:15;6.70;;;5.77;;
6973;SDS011;3527;52.376;8.990;2023-05-09T03:28:42;5.87;;;5.17;;
6973;SDS011;3527;52.376;8.990;2023-05-09T03:31:08;5.87;;;4.87;;
6973;SDS011;3527;52.376;8.990;2023-05-09T03:33:35;7.53;;;5.67;;
6973;SDS011;3527;52.376;8.990;2023-05-09T03:36:01;7.27;;;5.30;;
6973;SDS011;3527;52.376;8.990;2023-05-09T03:38:28;7.53;;;5.67;;
6973;SDS011;3527;52.376;8.990;2023-05-09T03:40:55;7.47;;;5.60;;
6973;SDS011;3527;52.376;8.990;2023-05-09T03:43:21;5.83;;;4.90;;
6973;SDS011;3527;52.376;8.990;2023-05-09T03:45:48;6.47;;;5.27;;
6973;SDS011;3527;52.376;8.990;2023-05-09T03:48:14;7.37;;;5.13;;
6973;SDS011;3527;52.376;8.990;2023-05-09T03:50:41;5.63;;;5.03;;
6973;SDS011;3527;52.376;8.990;2023-05-09T03:53:08;6.17;;;5.10;;
6973;SDS011;3527;52.376;8.990;2023-05-09T03:55:35;8.37;;;5.20;;
6973;SDS011;3527;52.376;8.990;2023-05-09T03:58:02;8.03;;;5.03;;
6973;SDS011;3527;52.376;8.990;2023-05-09T04:00:28;6.87;;;5.37;;
6973;SDS011;3527;52.376;8.990;2023-05-09T04:02:56;7.27;;;4.60;;
6973;SDS011;3527;52.376;8.990;2023-05-09T04:05:23;7.80;;;4.97;;
6973;SDS011;3527;52.376;8.990;2023-05-09T04:07:50;5.97;;;5.30;;
6973;SDS011;3527;52.376;8.990;2023-05-09T04:10:17;6.13;;;5.03;;
6973;SDS011;3527;52.376;8.990;2023-05-09T04:12:44;8.53;;;5.23;;
6973;SDS011;3527;52.376;8.990;2023-05-09T04:15:30;8.93;;;5.87;;
6973;SDS011;3527;52.376;8.990;2023-05-09T04:18:04;6.20;;;5.50;;
6973;SDS011;3527;52.376;8.990;2023-05-09T04:20:45;6.70;;;5.07;;
6973;SDS011;3527;52.376;8.990;2023-05-09T04:23:31;6.67;;;5.10;;
6973;SDS011;3527;52.376;8.990;2023-05-09T04:26:18;8.20;;;5.10;;
6973;SDS011;3527;52.376;8.990;2023-05-09T04:29:04;6.47;;;5.33;;
6973;SDS011;3527;52.376;8.990;2023-05-09T04:31:51;5.83;;;5.23;;
6973;SDS011;3527;52.376;8.990;2023-05-09T04:34:38;6.20;;;5.03;;
6973;SDS011;3527;52.376;8.990;2023-05-09T04:37:24;7.23;;;5.67;;
6973;SDS011;3527;52.376;8.990;2023-05-09T04:40:11;7.13;;;5.03;;
6973;SDS011;3527;52.376;8.990;2023-05-09T04:42:58;5.53;;;5.03;;
6973;SDS011;3527;52.376;8.990;2023-05-09T04:45:45;6.30;;;5.23;;
6973;SDS011;3527;52.376;8.990;2023-05-09T04:48:31;5.40;;;4.57;;
6973;SDS011;3527;52.376;8.990;2023-05-09T04:51:00;7.13;;;4.83;;
6973;SDS011;3527;52.376;8.990;2023-05-09T04:53:27;9.80;;;5.13;;
6973;SDS011;3527;52.376;8.990;2023-05-09T04:55:54;7.33;;;5.00;;
6973;SDS011;3527;52.376;8.990;2023-05-09T04:58:21;6.20;;;4.77;;
6973;SDS011;3527;52.376;8.990;2023-05-09T05:00:48;6.07;;;5.13;;
6973;SDS011;3527;52.376;8.990;2023-05-09T05:03:15;6.93;;;5.23;;
6973;SDS011;3527;52.376;8.990;2023-05-09T05:05:43;6.47;;;4.83;;
6973;SDS011;3527;52.376;8.990;2023-05-09T05:08:10;5.57;;;4.20;;
6973;SDS011;3527;52.376;8.990;2023-05-09T05:10:37;5.53;;;4.93;;
6973;SDS011;3527;52.376;8.990;2023-05-09T05:13:03;6.20;;;4.50;;
6973;SDS011;3527;52.376;8.990;2023-05-09T05:15:30;5.57;;;4.60;;
6973;SDS011;3527;52.376;8.990;2023-05-09T05:17:56;5.10;;;4.57;;
6973;SDS011;3527;52.376;8.990;2023-05-09T05:20:23;7.27;;;4.97;;
6973;SDS011;3527;52.376;8.990;2023-05-09T05:22:50;5.93;;;4.67;;
6973;SDS011;3527;52.376;8.990;2023-05-09T05:25:16;5.97;;;4.80;;
6973;SDS011;3527;52.376;8.990;2023-05-09T05:27:43;5.70;;;4.90;;
6973;SDS011;3527;52.376;8.990;2023-05-09T05:30:10;8.00;;;5.03;;
6973;SDS011;3527;52.376;8.990;2023-05-09T05:32:37;5.03;;;4.50;;
6973;SDS011;3527;52.376;8.990;2023-05-09T05:35:04;8.57;;;5.00;;
6973;SDS011;3527;52.376;8.990;2023-05-09T05:37:31;8.77;;;5.40;;
6973;SDS011;3527;52.376;8.990;2023-05-09T05:39:57;8.33;;;4.40;;
6973;SDS011;3527;52.376;8.990;2023-05-09T05:42:24;6.20;;;4.80;;
6973;SDS011;3527;52.376;8.990;2023-05-09T05:44:51;5.03;;;4.53;;
6973;SDS011;3527;52.376;8.990;2023-05-09T05:47:18;6.10;;;5.03;;
6973;SDS011;3527;52.376;8.990;2023-05-09T05:49:44;8.80;;;4.50;;
6973;SDS011;3527;52.376;8.990;2023-05-09T05:52:11;8.23;;;5.23;;
6973;SDS011;3527;52.376;8.990;2023-05-09T05:54:38;6.27;;;5.13;;
6973;SDS011;3527;52.376;8.990;2023-05-09T05:57:04;7.73;;;5.13;;
6973;SDS011;3527;52.376;8.990;2023-05-09T05:59:31;5.33;;;4.70;;
6973;SDS011;3527;52.376;8.990;2023-05-09T06:01:57;6.50;;;5.10;;
6973;SDS011;3527;52.376;8.990;2023-05-09T06:04:24;7.73;;;5.10;;
6973;SDS011;3527;52.376;8.990;2023-05-09T06:06:50;5.07;;;4.20;;
6973;SDS011;3527;52.376;8.990;2023-05-09T06:09:17;7.57;;;4.77;;
6973;SDS011;3527;52.376;8.990;2023-05-09T06:11:44;8.23;;;5.10;;
6973;SDS011;3527;52.376;8.990;2023-05-09T06:14:13;6.23;;;4.60;;
6973;SDS011;3527;52.376;8.990;2023-05-09T06:16:40;7.07;;;5.10;;
6973;SDS011;3527;52.376;8.990;2023-05-09T06:19:07;6.13;;;4.90;;
6973;SDS011;3527;52.376;8.990;2023-05-09T06:21:34;5.37;;;4.80;;
6973;SDS011;3527;52.376;8.990;2023-05-09T06:24:01;7.53;;;5.17;;
6973;SDS011;3527;52.376;8.990;2023-05-09T06:26:42;5.90;;;5.17;;
6973;SDS011;3527;52.376;8.990;2023-05-09T06:29:09;5.40;;;4.90;;
6973;SDS011;3527;52.376;8.990;2023-05-09T06:31:36;7.73;;;4.70;;
6973;SDS011;3527;52.376;8.990;2023-05-09T06:34:04;5.70;;;4.23;;
6973;SDS011;3527;52.376;8.990;2023-05-09T06:36:31;8.23;;;4.83;;
6973;SDS011;3527;52.376;8.990;2023-05-09T06:39:00;6.00;;;5.10;;
6973;SDS011;3527;52.376;8.990;2023-05-09T06:41:26;6.80;;;4.70;;
6973;SDS011;3527;52.376;8.990;2023-05-09T06:43:53;6.03;;;4.37;;
6973;SDS011;3527;52.376;8.990;2023-05-09T06:46:20;5.43;;;4.60;;
6973;SDS011;3527;52.376;8.990;2023-05-09T06:48:47;6.93;;;5.17;;
6973;SDS011;3527;52.376;8.990;2023-05-09T06:51:13;5.33;;;4.27;;
6973;SDS011;3527;52.376;8.990;2023-05-09T06:53:40;7.07;;;4.80;;
6973;SDS011;3527;52.376;8.990;2023-05-09T06:56:07;5.30;;;4.20;;
6973;SDS011;3527;52.376;8.990;2023-05-09T06:58:33;6.00;;;4.80;;
6973;SDS011;3527;52.376;8.990;2023-05-09T07:01:00;6.77;;;4.27;;
6973;SDS011;3527;52.376;8.990;2023-05-09T07:03:27;7.03;;;5.07;;
6973;SDS011;3527;52.376;8.990;2023-05-09T07:05:54;8.03;;;4.60;;
6973;SDS011;3527;52.376;8.990;2023-05-09T07:08:24;7.53;;;4.77;;
6973;SDS011;3527;52.376;8.990;2023-05-09T07:10:51;5.07;;;4.57;;
6973;SDS011;3527;52.376;8.990;2023-05-09T07:13:18;5.60;;;4.57;;
6973;SDS011;3527;52.376;8.990;2023-05-09T07:15:44;5.83;;;4.77;;
6973;SDS011;3527;52.376;8.990;2023-05-09T07:18:11;6.23;;;4.33;;
6973;SDS011;3527;52.376;8.990;2023-05-09T07:20:37;6.13;;;4.60;;
6973;SDS011;3527;52.376;8.990;2023-05-09T07:23:04;5.60;;;4.87;;
6973;SDS011;3527;52.376;8.990;2023-05-09T07:25:31;5.40;;;4.90;;
6973;SDS011;3527;52.376;8.990;2023-05-09T07:27:58;5.87;;;4.80;;
6973;SDS011;3527;52.376;8.990;2023-05-09T07:30:25;7.10;;;4.97;;
6973;SDS011;3527;52.376;8.990;2023-05-09T07:32:52;7.07;;;5.43;;
6973;SDS011;3527;52.376;8.990;2023-05-09T07:35:18;6.40;;;5.33;;
6973;SDS011;3527;52.376;8.990;2023-05-09T07:37:45;6.17;;;5.10;;
6973;SDS011;3527;52.376;8.990;2023-05-09T07:40:12;6.63;;;5.07;;
6973;SDS011;3527;52.376;8.990;2023-05-09T07:42:39;7.10;;;5.60;;
6973;SDS011;3527;52.376;8.990;2023-05-09T07:45:06;9.50;;;6.37;;
6973;SDS011;3527;52.376;8.990;2023-05-09T07:47:33;8.37;;;5.80;;
6973;SDS011;3527;52.376;8.990;2023-05-09T07:50:00;6.60;;;5.90;;
6973;SDS011;3527;52.376;8.990;2023-05-09T07:52:26;9.07;;;6.00;;
6973;SDS011;3527;52.376;8.990;2023-05-09T07:54:53;6.03;;;5.40;;
6973;SDS011;3527;52.376;8.990;2023-05-09T07:57:20;7.27;;;5.87;;
6973;SDS011;3527;52.376;8.990;2023-05-09T07:59:47;7.00;;;6.13;;
6973;SDS011;3527;52.376;8.990;2023-05-09T08:02:13;7.03;;;6.33;;
6973;SDS011;3527;52.376;8.990;2023-05-09T08:04:40;7.50;;;6.17;;
6973;SDS011;3527;52.376;8.990;2023-05-09T08:07:07;7.97;;;5.80;;
6973;SDS011;3527;52.376;8.990;2023-05-09T08:09:34;7.80;;;6.20;;
6973;SDS011;3527;52.376;8.990;2023-05-09T08:12:01;5.70;;;5.10;;
6973;SDS011;3527;52.376;8.990;2023-05-09T08:14:27;6.50;;;5.07;;
6973;SDS011;3527;52.376;8.990;2023-05-09T08:16:55;7.10;;;5.63;;
6973;SDS011;3527;52.376;8.990;2023-05-09T08:19:22;7.00;;;5.70;;
6973;SDS011;3527;52.376;8.990;2023-05-09T08:21:51;7.10;;;5.47;;
6973;SDS011;3527;52.376;8.990;2023-05-09T08:24:18;6.93;;;5.20;;
6973;SDS011;3527;52.376;8.990;2023-05-09T08:26:45;6.43;;;4.80;;
6973;SDS011;3527;52.376;8.990;2023-05-09T08:29:12;5.93;;;5.33;;
6973;SDS011;3527;52.376;8.990;2023-05-09T08:31:38;6.63;;;5.57;;
6973;SDS011;3527;52.376;8.990;2023-05-09T08:34:06;7.63;;;5.50;;
6973;SDS011;3527;52.376;8.990;2023-05-09T08:36:32;8.17;;;5.60;;
6973;SDS011;3527;52.376;8.990;2023-05-09T08:38:59;8.00;;;5.90;;
6973;SDS011;3527;52.376;8.990;2023-05-09T08:41:26;6.63;;;5.87;;
6973;SDS011;3527;52.376;8.990;2023-05-09T08:43:54;6.03;;;5.43;;
6973;SDS011;3527;52.376;8.990;2023-05-09T08:46:26;8.27;;;5.93;;
6973;SDS011;3527;52.376;8.990;2023-05-09T08:48:53;8.60;;;6.00;;
6973;SDS011;3527;52.376;8.990;2023-05-09T08:51:22;6.80;;;5.57;;
6973;SDS011;3527;52.376;8.990;2023-05-09T08:53:49;9.13;;;5.80;;
6973;SDS011;3527;52.376;8.990;2023-05-09T08:56:16;7.40;;;6.27;;
6973;SDS011;3527;52.376;8.990;2023-05-09T08:58:43;6.57;;;5.63;;
6973;SDS011;3527;52.376;8.990;2023-05-09T09:01:11;6.77;;;5.23;;
6973;SDS011;3527;52.376;8.990;2023-05-09T09:03:38;8.43;;;5.73;;
6973;SDS011;3527;52.376;8.990;2023-05-09T09:06:06;7.33;;;5.70;;
6973;SDS011;3527;52.376;8.990;2023-05-09T09:08:33;6.73;;;5.23;;
6973;SDS011;3527;52.376;8.990;2023-05-09T09:10:59;7.20;;;5.23;;
6973;SDS011;3527;52.376;8.990;2023-05-09T09:13:26;5.90;;;5.30;;
6973;SDS011;3527;52.376;8.990;2023-05-09T09:15:53;6.07;;;5.40;;
6973;SDS011;3527;52.376;8.990;2023-05-09T09:18:22;9.83;;;6.47;;
6973;SDS011;3527;52.376;8.990;2023-05-09T09:20:55;8.63;;;5.50;;
6973;SDS011;3527;52.376;8.990;2023-05-09T09:23:24;7.10;;;6.40;;
6973;SDS011;3527;52.376;8.990;2023-05-09T09:25:57;6.10;;;5.50;;
6973;SDS011;3527;52.376;8.990;2023-05-09T09:28:25;8.33;;;5.97;;
6973;SDS011;3527;52.376;8.990;2023-05-09T09:30:52;6.23;;;5.63;;
6973;SDS011;3527;52.376;8.990;2023-05-09T09:33:19;7.30;;;5.70;;
6973;SDS011;3527;52.376;8.990;2023-05-09T09:35:47;9.00;;;6.05;;
6973;SDS011;3527;52.376;8.990;2023-05-09T09:38:14;5.72;;;5.13;;
6973;SDS011;3527;52.376;8.990;2023-05-09T09:40:48;6.07;;;5.47;;
6973;SDS011;3527;52.376;8.990;2023-05-09T09:43:15;7.35;;;5.80;;
6973;SDS011;3527;52.376;8.990;2023-05-09T09:45:41;9.13;;;6.53;;
6973;SDS011;3527;52.376;8.990;2023-05-09T09:48:08;7.75;;;6.25;;
6973;SDS011;3527;52.376;8.990;2023-05-09T09:50:34;10.80;;;7.82;;
6973;SDS011;3527;52.376;8.990;2023-05-09T09:53:01;8.35;;;6.65;;
6973;SDS011;3527;52.376;8.990;2023-05-09T09:55:29;7.57;;;5.72;;
6973;SDS011;3527;52.376;8.990;2023-05-09T09:57:57;6.57;;;5.97;;
6973;SDS011;3527;52.376;8.990;2023-05-09T10:00:24;8.43;;;6.32;;
6973;SDS011;3527;52.376;8.990;2023-05-09T10:02:52;7.72;;;5.93;;
6973;SDS011;3527;52.376;8.990;2023-05-09T10:05:27;8.50;;;6.60;;
6973;SDS011;3527;52.376;8.990;2023-05-09T10:10:21;8.55;;;7.07;;
6973;SDS011;3527;52.376;8.990;2023-05-09T10:12:48;9.82;;;6.90;;
6973;SDS011;3527;52.376;8.990;2023-05-09T10:15:16;7.20;;;6.50;;
6973;SDS011;3527;52.376;8.990;2023-05-09T10:17:45;7.00;;;6.35;;
6973;SDS011;3527;52.376;8.990;2023-05-09T10:20:13;8.30;;;6.95;;
6973;SDS011;3527;52.376;8.990;2023-05-09T10:22:40;7.10;;;6.30;;
6973;SDS011;3527;52.376;8.990;2023-05-09T10:25:09;7.70;;;5.57;;
6973;SDS011;3527;52.376;8.990;2023-05-09T10:27:40;8.63;;;7.80;;
6973;SDS011;3527;52.376;8.990;2023-05-09T10:30:07;10.35;;;8.20;;
6973;SDS011;3527;52.376;8.990;2023-05-09T10:32:46;8.68;;;7.78;;
6973;SDS011;3527;52.376;8.990;2023-05-09T10:35:13;7.65;;;6.25;;
6973;SDS011;3527;52.376;8.990;2023-05-09T10:37:43;7.20;;;6.50;;
6973;SDS011;3527;52.376;8.990;2023-05-09T10:40:10;7.30;;;6.53;;
6973;SDS011;3527;52.376;8.990;2023-05-09T10:42:41;7.55;;;6.00;;
6973;SDS011;3527;52.376;8.990;2023-05-09T10:45:08;8.75;;;7.85;;
6973;SDS011;3527;52.376;8.990;2023-05-09T10:47:36;10.77;;;8.38;;
6973;SDS011;3527;52.376;8.990;2023-05-09T10:50:03;10.13;;;8.00;;
6973;SDS011;3527;52.376;8.990;2023-05-09T10:52:31;8.63;;;7.50;;
6973;SDS011;3527;52.376;8.990;2023-05-09T10:55:02;9.50;;;8.50;;
6973;SDS011;3527;52.376;8.990;2023-05-09T10:57:30;9.80;;;7.40;;
6973;SDS011;3527;52.376;8.990;2023-05-09T10:59:57;8.38;;;7.30;;
6973;SDS011;3527;52.376;8.990;2023-05-09T11:02:24;8.40;;;7.47;;
6973;SDS011;3527;52.376;8.990;2023-05-09T11:07:40;7.80;;;6.38;;
6973;SDS011;3527;52.376;8.990;2023-05-09T11:10:09;10.70;;;7.18;;
6973;SDS011;3527;52.376;8.990;2023-05-09T11:12:52;7.68;;;6.15;;
6973;SDS011;3527;52.376;8.990;2023-05-09T11:15:22;7.53;;;6.57;;
6973;SDS011;3527;52.376;8.990;2023-05-09T11:18:05;6.80;;;5.95;;
6973;SDS011;3527;52.376;8.990;2023-05-09T11:20:33;6.88;;;6.05;;
6973;SDS011;3527;52.376;8.990;2023-05-09T11:23:02;9.10;;;6.47;;
6973;SDS011;3527;52.376;8.990;2023-05-09T11:25:29;7.03;;;5.80;;
6973;SDS011;3527;52.376;8.990;2023-05-09T11:27:59;6.82;;;6.13;;
6973;SDS011;3527;52.376;8.990;2023-05-09T11:33:02;8.90;;;5.80;;
6973;SDS011;3527;52.376;8.990;2023-05-09T11:35:32;6.47;;;5.68;;
6973;SDS011;3527;52.376;8.990;2023-05-09T11:38:03;7.78;;;5.95;;
6973;SDS011;3527;52.376;8.990;2023-05-09T11:40:30;7.68;;;6.07;;
6973;SDS011;3527;52.376;8.990;2023-05-09T11:42:57;6.75;;;6.10;;
6973;SDS011;3527;52.376;8.990;2023-05-09T11:45:26;6.75;;;6.07;;
6973;SDS011;3527;52.376;8.990;2023-05-09T11:47:52;7.68;;;5.82;;
6973;SDS011;3527;52.376;8.990;2023-05-09T11:50:19;6.28;;;5.55;;
6973;SDS011;3527;52.376;8.990;2023-05-09T11:52:47;6.80;;;5.60;;
6973;SDS011;3527;52.376;8.990;2023-05-09T11:55:15;6.32;;;5.40;;
6973;SDS011;3527;52.376;8.990;2023-05-09T11:57:46;6.25;;;5.65;;
6973;SDS011;3527;52.376;8.990;2023-05-09T12:00:19;7.78;;;5.18;;
6973;SDS011;3527;52.376;8.990;2023-05-09T12:02:46;6.40;;;5.80;;
6973;SDS011;3527;52.376;8.990;2023-05-09T12:05:15;5.65;;;5.03;;
6973;SDS011;3527;52.376;8.990;2023-05-09T12:07:43;7.68;;;5.72;;
6973;SDS011;3527;52.376;8.990;2023-05-09T12:10:13;7.50;;;5.40;;
6973;SDS011;3527;52.376;8.990;2023-05-09T12:12:43;5.70;;;5.13;;
6973;SDS011;3527;52.376;8.990;2023-05-09T12:15:11;6.57;;;5.15;;
6973;SDS011;3527;52.376;8.990;2023-05-09T12:17:43;6.85;;;5.20;;
6973;SDS011;3527;52.376;8.990;2023-05-09T12:20:10;5.75;;;5.10;;
6973;SDS011;3527;52.376;8.990;2023-05-09T12:22:37;9.30;;;5.55;;
6973;SDS011;3527;52.376;8.990;2023-05-09T12:25:04;5.82;;;5.28;;
6973;SDS011;3527;52.376;8.990;2023-05-09T12:27:36;6.35;;;5.43;;
6973;SDS011;3527;52.376;8.990;2023-05-09T12:30:03;7.28;;;5.50;;
6973;SDS011;3527;52.376;8.990;2023-05-09T12:32:33;6.95;;;5.43;;
6973;SDS011;3527;52.376;8.990;2023-05-09T12:35:02;6.97;;;5.03;;
6973;SDS011;3527;52.376;8.990;2023-05-09T12:37:29;7.03;;;5.10;;
6973;SDS011;3527;52.376;8.990;2023-05-09T12:40:02;5.97;;;5.28;;
6973;SDS011;3527;52.376;8.990;2023-05-09T12:42:30;6.15;;;5.13;;
6973;SDS011;3527;52.376;8.990;2023-05-09T12:44:56;6.22;;;5.43;;
6973;SDS011;3527;52.376;8.990;2023-05-09T12:47:26;6.32;;;5.60;;
6973;SDS011;3527;52.376;8.990;2023-05-09T12:49:57;5.65;;;5.15;;
6973;SDS011;3527;52.376;8.990;2023-05-09T12:52:24;7.22;;;5.20;;
6973;SDS011;3527;52.376;8.990;2023-05-09T12:54:51;5.70;;;5.10;;
6973;SDS011;3527;52.376;8.990;2023-05-09T12:57:22;5.95;;;5.30;;
6973;SDS011;3527;52.376;8.990;2023-05-09T12:59:49;5.88;;;5.30;;
6973;SDS011;3527;52.376;8.990;2023-05-09T13:02:15;7.22;;;5.68;;
6973;SDS011;3527;52.376;8.990;2023-05-09T13:04:43;5.80;;;5.13;;
6973;SDS011;3527;52.376;8.990;2023-05-09T13:07:12;5.72;;;5.20;;
6973;SDS011;3527;52.376;8.990;2023-05-09T13:09:52;7.07;;;5.15;;
6973;SDS011;3527;52.376;8.990;2023-05-09T13:12:19;5.68;;;5.18;;
6973;SDS011;3527;52.376;8.990;2023-05-09T13:14:46;5.22;;;4.70;;
6973;SDS011;3527;52.376;8.990;2023-05-09T13:17:13;5.13;;;4.63;;
6973;SDS011;3527;52.376;8.990;2023-05-09T13:19:39;5.65;;;5.15;;
6973;SDS011;3527;52.376;8.990;2023-05-09T13:22:06;5.80;;;5.00;;
6973;SDS011;3527;52.376;8.990;2023-05-09T13:24:32;7.15;;;4.63;;
6973;SDS011;3527;52.376;8.990;2023-05-09T13:26:59;5.30;;;4.63;;
6973;SDS011;3527;52.376;8.990;2023-05-09T13:29:26;5.30;;;4.75;;
6973;SDS011;3527;52.376;8.990;2023-05-09T13:31:52;7.80;;;4.47;;
6973;SDS011;3527;52.376;8.990;2023-05-09T13:34:19;5.50;;;4.88;;
6973;SDS011;3527;52.376;8.990;2023-05-09T13:36:46;5.25;;;4.55;;
6973;SDS011;3527;52.376;8.990;2023-05-09T13:39:12;6.50;;;4.97;;
6973;SDS011;3527;52.376;8.990;2023-05-09T13:41:39;5.47;;;4.97;;
6973;SDS011;3527;52.376;8.990;2023-05-09T13:44:06;4.93;;;4.25;;
6973;SDS011;3527;52.376;8.990;2023-05-09T13:46:32;6.38;;;5.43;;
6973;SDS011;3527;52.376;8.990;2023-05-09T13:48:59;5.20;;;4.68;;
6973;SDS011;3527;52.376;8.990;2023-05-09T13:51:26;7.28;;;6.57;;
6973;SDS011;3527;52.376;8.990;2023-05-09T13:53:54;5.25;;;4.70;;
6973;SDS011;3527;52.376;8.990;2023-05-09T13:56:20;5.20;;;4.65;;
6973;SDS011;3527;52.376;8.990;2023-05-09T13:58:47;5.32;;;4.45;;
6973;SDS011;3527;52.376;8.990;2023-05-09T14:01:14;5.43;;;4.93;;
6973;SDS011;3527;52.376;8.990;2023-05-09T14:03:41;5.00;;;4.53;;
6973;SDS011;3527;52.376;8.990;2023-05-09T14:06:08;6.88;;;4.78;;
6973;SDS011;3527;52.376;8.990;2023-05-09T14:08:35;5.93;;;5.18;;
6973;SDS011;3527;52.376;8.990;2023-05-09T14:11:02;6.55;;;4.30;;
6973;SDS011;3527;52.376;8.990;2023-05-09T14:13:29;6.15;;;4.70;;
6973;SDS011;3527;52.376;8.990;2023-05-09T14:15:57;4.75;;;4.30;;
6973;SDS011;3527;52.376;8.990;2023-05-09T14:18:24;6.13;;;4.85;;
6973;SDS011;3527;52.376;8.990;2023-05-09T14:20:51;5.85;;;5.15;;
6973;SDS011;3527;52.376;8.990;2023-05-09T14:23:17;6.75;;;5.00;;
6973;SDS011;3527;52.376;8.990;2023-05-09T14:25:44;5.78;;;4.88;;
6973;SDS011;3527;52.376;8.990;2023-05-09T14:28:11;5.07;;;4.57;;
6973;SDS011;3527;52.376;8.990;2023-05-09T14:30:38;9.32;;;4.93;;
6973;SDS011;3527;52.376;8.990;2023-05-09T14:33:04;5.07;;;4.43;;
6973;SDS011;3527;52.376;8.990;2023-05-09T14:35:32;5.72;;;4.50;;
6973;SDS011;3527;52.376;8.990;2023-05-09T14:37:59;5.85;;;4.68;;
6973;SDS011;3527;52.376;8.990;2023-05-09T14:40:26;4.57;;;4.18;;
6973;SDS011;3527;52.376;8.990;2023-05-09T14:42:57;5.25;;;3.95;;
6973;SDS011;3527;52.376;8.990;2023-05-09T14:45:24;5.40;;;4.60;;
6973;SDS011;3527;52.376;8.990;2023-05-09T14:47:51;4.70;;;4.20;;
6973;SDS011;3527;52.376;8.990;2023-05-09T14:50:18;5.30;;;4.45;;
6973;SDS011;3527;52.376;8.990;2023-05-09T14:52:46;5.03;;;4.63;;
6973;SDS011;3527;52.376;8.990;2023-05-09T14:55:13;5.28;;;4.30;;
6973;SDS011;3527;52.376;8.990;2023-05-09T14:57:39;6.45;;;4.05;;
6973;SDS011;3527;52.376;8.990;2023-05-09T15:00:06;4.57;;;4.18;;
6973;SDS011;3527;52.376;8.990;2023-05-09T15:02:46;5.28;;;4.22;;
6973;SDS011;3527;52.376;8.990;2023-05-09T15:05:12;5.32;;;4.13;;
6973;SDS011;3527;52.376;8.990;2023-05-09T15:07:39;5.40;;;4.13;;
6973;SDS011;3527;52.376;8.990;2023-05-09T15:10:06;4.28;;;3.88;;
6973;SDS011;3527;52.376;8.990;2023-05-09T15:12:32;4.43;;;4.03;;
6973;SDS011;3527;52.376;8.990;2023-05-09T15:15:12;5.15;;;4.65;;
6973;SDS011;3527;52.376;8.990;2023-05-09T15:17:39;6.93;;;4.40;;
6973;SDS011;3527;52.376;8.990;2023-05-09T15:20:06;5.10;;;3.83;;
6973;SDS011;3527;52.376;8.990;2023-05-09T15:22:33;4.75;;;4.03;;
6973;SDS011;3527;52.376;8.990;2023-05-09T15:24:59;5.75;;;4.10;;
6973;SDS011;3527;52.376;8.990;2023-05-09T15:27:28;6.38;;;4.13;;
6973;SDS011;3527;52.376;8.990;2023-05-09T15:29:54;4.07;;;3.67;;
6973;SDS011;3527;52.376;8.990;2023-05-09T15:32:21;4.80;;;4.25;;
6973;SDS011;3527;52.376;8.990;2023-05-09T15:34:48;5.45;;;4.95;;
6973;SDS011;3527;52.376;8.990;2023-05-09T15:37:14;5.07;;;4.47;;